sensor_id;sensor_type;location;lat;lon;timestamp;pressure;altitude;pressure_sealevel;temperature;humidity
44351;BME280;62766;62.622;17.912;2023-04-15T00:02:15;102425.42;;;1.92;52.12
44351;BME280;62766;62.622;17.912;2023-04-15T00:04:45;102425.70;;;2.01;52.52
44351;BME280;62766;62.622;17.912;2023-04-15T00:07:13;102430.30;;;2.12;52.75
44351;BME280;62766;62.622;17.912;2023-04-15T00:09:41;102436.71;;;2.00;52.57
44351;BME280;62766;62.622;17.912;2023-04-15T00:12:10;102435.62;;;1.89;52.72
44351;BME280;62766;62.622;17.912;2023-04-15T00:14:38;102441.55;;;1.77;53.08
44351;BME280;62766;62.622;17.912;2023-04-15T00:17:07;102441.64;;;1.60;53.45
44351;BME280;62766;62.622;17.912;2023-04-15T00:19:36;102437.18;;;1.59;53.58
44351;BME280;62766;62.622;17.912;2023-04-15T00:22:04;102439.39;;;1.65;53.66
44351;BME280;62766;62.622;17.912;2023-04-15T00:24:32;102437.58;;;1.61;53.61
44351;BME280;62766;62.622;17.912;2023-04-15T00:27:01;102440.98;;;1.63;53.44
44351;BME280;62766;62.622;17.912;2023-04-15T00:29:29;102439.27;;;1.52;53.45
44351;BME280;62766;62.622;17.912;2023-04-15T00:31:58;102444.70;;;1.53;53.43
44351;BME280;62766;62.622;17.912;2023-04-15T00:34:27;102442.24;;;1.74;53.29
44351;BME280;62766;62.622;17.912;2023-04-15T00:36:55;102443.84;;;1.72;52.91
44351;BME280;62766;62.622;17.912;2023-04-15T00:39:24;102441.24;;;1.80;52.65
44351;BME280;62766;62.622;17.912;2023-04-15T00:41:53;102439.37;;;1.77;52.28
44351;BME280;62766;62.622;17.912;2023-04-15T00:44:23;102439.65;;;1.88;52.19
44351;BME280;62766;62.622;17.912;2023-04-15T00:46:53;102439.70;;;1.78;52.05
44351;BME280;62766;62.622;17.912;2023-04-15T00:49:22;102436.79;;;1.80;52.07
44351;BME280;62766;62.622;17.912;2023-04-15T00:51:51;102439.16;;;1.79;52.02
44351;BME280;62766;62.622;17.912;2023-04-15T00:54:20;102436.41;;;1.85;52.02
44351;BME280;62766;62.622;17.912;2023-04-15T00:56:48;102438.99;;;1.80;52.00
44351;BME280;62766;62.622;17.912;2023-04-15T00:59:17;102439.61;;;1.74;51.93
44351;BME280;62766;62.622;17.912;2023-04-15T01:01:46;102438.36;;;1.73;51.92
44351;BME280;62766;62.622;17.912;2023-04-15T01:04:15;102441.43;;;1.72;51.89
44351;BME280;62766;62.622;17.912;2023-04-15T01:06:43;102442.12;;;1.71;51.82
44351;BME280;62766;62.622;17.912;2023-04-15T01:09:11;102446.48;;;1.62;51.79
44351;BME280;62766;62.622;17.912;2023-04-15T01:11:40;102443.38;;;1.77;51.76
44351;BME280;62766;62.622;17.912;2023-04-15T01:14:09;102443.78;;;1.78;51.67
44351;BME280;62766;62.622;17.912;2023-04-15T01:16:39;102449.61;;;1.79;51.62
44351;BME280;62766;62.622;17.912;2023-04-15T01:19:07;102449.20;;;1.78;51.48
44351;BME280;62766;62.622;17.912;2023-04-15T01:21:38;102450.10;;;1.77;51.62
44351;BME280;62766;62.622;17.912;2023-04-15T01:24:09;102451.43;;;1.64;51.79
44351;BME280;62766;62.622;17.912;2023-04-15T01:26:38;102449.70;;;1.65;51.97
44351;BME280;62766;62.622;17.912;2023-04-15T01:29:08;102451.43;;;1.55;51.99
44351;BME280;62766;62.622;17.912;2023-04-15T01:31:36;102453.37;;;1.60;51.93
44351;BME280;62766;62.622;17.912;2023-04-15T01:34:05;102459.29;;;1.57;51.49
44351;BME280;62766;62.622;17.912;2023-04-15T01:36:33;102460.85;;;1.63;51.45
44351;BME280;62766;62.622;17.912;2023-04-15T01:39:03;102461.16;;;1.59;51.77
44351;BME280;62766;62.622;17.912;2023-04-15T01:41:31;102462.04;;;1.51;51.91
44351;BME280;62766;62.622;17.912;2023-04-15T01:43:59;102462.41;;;1.47;52.04
44351;BME280;62766;62.622;17.912;2023-04-15T01:46:28;102465.42;;;1.48;52.17
44351;BME280;62766;62.622;17.912;2023-04-15T01:48:56;102465.88;;;1.51;51.72
44351;BME280;62766;62.622;17.912;2023-04-15T01:51:25;102466.73;;;1.58;51.74
44351;BME280;62766;62.622;17.912;2023-04-15T01:53:53;102466.56;;;1.60;51.68
44351;BME280;62766;62.622;17.912;2023-04-15T01:56:23;102468.79;;;1.48;51.68
44351;BME280;62766;62.622;17.912;2023-04-15T01:58:52;102463.72;;;1.53;51.70
44351;BME280;62766;62.622;17.912;2023-04-15T02:01:21;102462.59;;;1.49;51.32
44351;BME280;62766;62.622;17.912;2023-04-15T02:03:50;102464.02;;;1.35;51.61
44351;BME280;62766;62.622;17.912;2023-04-15T02:06:19;102464.31;;;1.30;51.70
44351;BME280;62766;62.622;17.912;2023-04-15T02:08:47;102465.61;;;1.31;51.76
44351;BME280;62766;62.622;17.912;2023-04-15T02:11:16;102466.71;;;1.32;51.44
44351;BME280;62766;62.622;17.912;2023-04-15T02:13:44;102466.58;;;1.30;51.39
44351;BME280;62766;62.622;17.912;2023-04-15T02:16:15;102466.88;;;1.32;51.17
44351;BME280;62766;62.622;17.912;2023-04-15T02:18:43;102462.10;;;1.38;51.25
44351;BME280;62766;62.622;17.912;2023-04-15T02:21:11;102464.70;;;1.29;51.38
44351;BME280;62766;62.622;17.912;2023-04-15T02:23:40;102464.52;;;1.03;51.50
44351;BME280;62766;62.622;17.912;2023-04-15T02:26:08;102467.53;;;1.08;51.56
44351;BME280;62766;62.622;17.912;2023-04-15T02:28:37;102470.42;;;1.01;51.70
44351;BME280;62766;62.622;17.912;2023-04-15T02:31:05;102470.96;;;1.04;51.74
44351;BME280;62766;62.622;17.912;2023-04-15T02:33:34;102469.46;;;1.09;51.78
44351;BME280;62766;62.622;17.912;2023-04-15T02:36:02;102468.56;;;1.23;51.76
44351;BME280;62766;62.622;17.912;2023-04-15T02:38:30;102472.53;;;1.14;51.77
44351;BME280;62766;62.622;17.912;2023-04-15T02:40:59;102470.72;;;1.21;51.71
44351;BME280;62766;62.622;17.912;2023-04-15T02:43:27;102470.19;;;1.02;51.76
44351;BME280;62766;62.622;17.912;2023-04-15T02:45:56;102471.96;;;1.06;51.68
44351;BME280;62766;62.622;17.912;2023-04-15T02:48:24;102474.34;;;1.02;51.78
44351;BME280;62766;62.622;17.912;2023-04-15T02:50:53;102475.23;;;1.00;51.74
44351;BME280;62766;62.622;17.912;2023-04-15T02:53:22;102475.61;;;1.05;51.84
44351;BME280;62766;62.622;17.912;2023-04-15T02:55:50;102478.20;;;1.05;51.74
44351;BME280;62766;62.622;17.912;2023-04-15T02:58:19;102477.12;;;1.00;51.81
44351;BME280;62766;62.622;17.912;2023-04-15T03:00:47;102476.14;;;0.96;52.04
44351;BME280;62766;62.622;17.912;2023-04-15T03:03:16;102479.38;;;0.89;52.08
44351;BME280;62766;62.622;17.912;2023-04-15T03:05:45;102482.81;;;1.07;52.22
44351;BME280;62766;62.622;17.912;2023-04-15T03:08:13;102488.45;;;0.93;52.24
44351;BME280;62766;62.622;17.912;2023-04-15T03:10:42;102489.74;;;0.90;52.28
44351;BME280;62766;62.622;17.912;2023-04-15T03:13:11;102491.11;;;0.85;52.32
44351;BME280;62766;62.622;17.912;2023-04-15T03:15:39;102491.07;;;0.90;52.48
44351;BME280;62766;62.622;17.912;2023-04-15T03:18:08;102494.53;;;0.80;52.46
44351;BME280;62766;62.622;17.912;2023-04-15T03:20:37;102497.86;;;0.76;52.63
44351;BME280;62766;62.622;17.912;2023-04-15T03:23:05;102496.06;;;0.89;52.73
44351;BME280;62766;62.622;17.912;2023-04-15T03:25:34;102495.99;;;0.72;52.88
44351;BME280;62766;62.622;17.912;2023-04-15T03:28:02;102500.28;;;0.81;52.84
44351;BME280;62766;62.622;17.912;2023-04-15T03:30:30;102500.51;;;0.84;52.86
44351;BME280;62766;62.622;17.912;2023-04-15T03:32:59;102500.69;;;0.88;52.91
44351;BME280;62766;62.622;17.912;2023-04-15T03:35:28;102503.68;;;1.00;52.98
44351;BME280;62766;62.622;17.912;2023-04-15T03:37:56;102503.59;;;0.98;52.89
44351;BME280;62766;62.622;17.912;2023-04-15T03:40:25;102501.46;;;0.96;52.79
44351;BME280;62766;62.622;17.912;2023-04-15T03:42:53;102501.86;;;1.02;52.74
44351;BME280;62766;62.622;17.912;2023-04-15T03:45:23;102502.03;;;1.01;52.76
44351;BME280;62766;62.622;17.912;2023-04-15T03:47:52;102501.98;;;0.97;52.69
44351;BME280;62766;62.622;17.912;2023-04-15T03:50:21;102506.20;;;1.11;52.51
44351;BME280;62766;62.622;17.912;2023-04-15T03:52:49;102506.20;;;1.05;52.55
44351;BME280;62766;62.622;17.912;2023-04-15T03:55:18;102504.53;;;1.03;52.43
44351;BME280;62766;62.622;17.912;2023-04-15T03:57:46;102503.04;;;1.14;52.34
44351;BME280;62766;62.622;17.912;2023-04-15T04:03:18;102502.37;;;1.05;52.62
44351;BME280;62766;62.622;17.912;2023-04-15T04:05:47;102504.94;;;1.18;52.65
44351;BME280;62766;62.622;17.912;2023-04-15T04:08:15;102504.90;;;1.33;52.58
44351;BME280;62766;62.622;17.912;2023-04-15T04:10:44;102505.67;;;1.30;52.50
44351;BME280;62766;62.622;17.912;2023-04-15T04:13:12;102507.49;;;1.24;52.48
44351;BME280;62766;62.622;17.912;2023-04-15T04:15:41;102507.76;;;1.44;52.15
44351;BME280;62766;62.622;17.912;2023-04-15T04:18:09;102507.48;;;1.42;52.08
44351;BME280;62766;62.622;17.912;2023-04-15T04:20:37;102510.07;;;1.41;51.95
44351;BME280;62766;62.622;17.912;2023-04-15T04:23:06;102510.20;;;1.33;51.90
44351;BME280;62766;62.622;17.912;2023-04-15T04:25:34;102514.33;;;1.39;51.84
44351;BME280;62766;62.622;17.912;2023-04-15T04:28:04;102511.75;;;1.40;51.90
44351;BME280;62766;62.622;17.912;2023-04-15T04:30:34;102517.19;;;1.54;51.81
44351;BME280;62766;62.622;17.912;2023-04-15T04:33:04;102517.23;;;1.43;51.70
44351;BME280;62766;62.622;17.912;2023-04-15T04:35:33;102519.27;;;1.56;51.74
44351;BME280;62766;62.622;17.912;2023-04-15T04:38:03;102519.84;;;1.63;51.67
44351;BME280;62766;62.622;17.912;2023-04-15T04:40:32;102515.69;;;1.58;51.62
44351;BME280;62766;62.622;17.912;2023-04-15T04:43:01;102515.52;;;1.61;51.53
44351;BME280;62766;62.622;17.912;2023-04-15T04:45:29;102515.01;;;1.65;51.47
44351;BME280;62766;62.622;17.912;2023-04-15T04:47:57;102512.76;;;1.71;51.41
44351;BME280;62766;62.622;17.912;2023-04-15T04:50:26;102515.38;;;1.75;51.31
44351;BME280;62766;62.622;17.912;2023-04-15T04:52:54;102514.88;;;1.70;51.32
44351;BME280;62766;62.622;17.912;2023-04-15T04:55:23;102516.65;;;1.80;51.38
44351;BME280;62766;62.622;17.912;2023-04-15T04:57:51;102518.94;;;1.89;51.38
44351;BME280;62766;62.622;17.912;2023-04-15T05:00:20;102519.57;;;1.96;51.30
44351;BME280;62766;62.622;17.912;2023-04-15T05:02:48;102516.77;;;2.04;51.18
44351;BME280;62766;62.622;17.912;2023-04-15T05:05:16;102521.45;;;1.97;51.12
44351;BME280;62766;62.622;17.912;2023-04-15T05:07:45;102522.68;;;2.12;51.17
44351;BME280;62766;62.622;17.912;2023-04-15T05:10:13;102525.51;;;2.29;50.98
44351;BME280;62766;62.622;17.912;2023-04-15T05:12:42;102524.45;;;2.31;50.83
44351;BME280;62766;62.622;17.912;2023-04-15T05:15:10;102524.49;;;2.25;50.75
44351;BME280;62766;62.622;17.912;2023-04-15T05:17:38;102529.01;;;2.32;50.41
44351;BME280;62766;62.622;17.912;2023-04-15T05:20:07;102532.31;;;2.40;50.33
44351;BME280;62766;62.622;17.912;2023-04-15T05:22:36;102527.22;;;2.37;50.18
44351;BME280;62766;62.622;17.912;2023-04-15T05:25:05;102527.03;;;2.53;50.04
44351;BME280;62766;62.622;17.912;2023-04-15T05:27:34;102527.21;;;2.54;50.09
44351;BME280;62766;62.622;17.912;2023-04-15T05:30:04;102527.35;;;2.59;49.86
44351;BME280;62766;62.622;17.912;2023-04-15T05:32:33;102525.72;;;2.71;50.12
44351;BME280;62766;62.622;17.912;2023-04-15T05:35:01;102524.91;;;2.72;49.96
44351;BME280;62766;62.622;17.912;2023-04-15T05:37:29;102523.93;;;2.87;49.82
44351;BME280;62766;62.622;17.912;2023-04-15T05:39:58;102520.06;;;2.84;49.81
44351;BME280;62766;62.622;17.912;2023-04-15T05:42:26;102524.05;;;2.91;49.62
44351;BME280;62766;62.622;17.912;2023-04-15T05:44:55;102525.33;;;2.99;49.55
44351;BME280;62766;62.622;17.912;2023-04-15T05:47:23;102525.35;;;2.89;49.41
44351;BME280;62766;62.622;17.912;2023-04-15T05:49:52;102521.90;;;2.96;49.21
44351;BME280;62766;62.622;17.912;2023-04-15T05:52:21;102527.55;;;2.94;49.26
44351;BME280;62766;62.622;17.912;2023-04-15T05:54:50;102524.46;;;3.00;49.08
44351;BME280;62766;62.622;17.912;2023-04-15T05:57:19;102524.07;;;3.02;48.96
44351;BME280;62766;62.622;17.912;2023-04-15T05:59:47;102524.26;;;3.06;48.79
44351;BME280;62766;62.622;17.912;2023-04-15T06:02:15;102529.39;;;3.21;48.87
44351;BME280;62766;62.622;17.912;2023-04-15T06:04:44;102533.75;;;3.39;48.66
44351;BME280;62766;62.622;17.912;2023-04-15T06:07:12;102525.92;;;3.33;48.06
44351;BME280;62766;62.622;17.912;2023-04-15T06:09:41;102530.62;;;3.18;48.15
44351;BME280;62766;62.622;17.912;2023-04-15T06:12:09;102532.85;;;3.25;48.02
44351;BME280;62766;62.622;17.912;2023-04-15T06:14:38;102531.65;;;3.19;47.84
44351;BME280;62766;62.622;17.912;2023-04-15T06:17:06;102533.51;;;3.26;48.11
44351;BME280;62766;62.622;17.912;2023-04-15T06:19:34;102536.61;;;3.26;47.89
44351;BME280;62766;62.622;17.912;2023-04-15T06:22:08;102537.19;;;3.29;47.76
44351;BME280;62766;62.622;17.912;2023-04-15T06:24:37;102537.30;;;3.29;47.73
44351;BME280;62766;62.622;17.912;2023-04-15T06:27:06;102537.90;;;3.26;48.03
44351;BME280;62766;62.622;17.912;2023-04-15T06:29:34;102543.33;;;3.23;48.34
44351;BME280;62766;62.622;17.912;2023-04-15T06:32:03;102541.51;;;3.09;48.05
44351;BME280;62766;62.622;17.912;2023-04-15T06:34:33;102546.82;;;3.24;48.63
44351;BME280;62766;62.622;17.912;2023-04-15T06:37:02;102546.02;;;3.18;48.37
44351;BME280;62766;62.622;17.912;2023-04-15T06:39:30;102548.55;;;3.32;48.48
44351;BME280;62766;62.622;17.912;2023-04-15T06:41:59;102547.99;;;3.21;48.63
44351;BME280;62766;62.622;17.912;2023-04-15T06:44:28;102549.33;;;3.34;48.30
44351;BME280;62766;62.622;17.912;2023-04-15T06:46:56;102545.95;;;3.43;48.10
44351;BME280;62766;62.622;17.912;2023-04-15T06:49:24;102548.56;;;3.36;47.86
44351;BME280;62766;62.622;17.912;2023-04-15T06:51:53;102548.12;;;3.31;47.75
44351;BME280;62766;62.622;17.912;2023-04-15T06:54:21;102553.09;;;3.30;47.46
44351;BME280;62766;62.622;17.912;2023-04-15T06:56:51;102553.38;;;3.32;47.80
44351;BME280;62766;62.622;17.912;2023-04-15T06:59:20;102557.35;;;3.27;47.88
44351;BME280;62766;62.622;17.912;2023-04-15T07:01:48;102562.83;;;3.21;47.82
44351;BME280;62766;62.622;17.912;2023-04-15T07:04:17;102570.62;;;3.44;47.97
44351;BME280;62766;62.622;17.912;2023-04-15T07:06:45;102571.24;;;3.14;47.74
44351;BME280;62766;62.622;17.912;2023-04-15T07:09:14;102571.56;;;3.43;48.04
44351;BME280;62766;62.622;17.912;2023-04-15T07:11:42;102580.33;;;3.37;48.43
44351;BME280;62766;62.622;17.912;2023-04-15T07:14:11;102580.05;;;3.44;48.24
44351;BME280;62766;62.622;17.912;2023-04-15T07:16:39;102582.55;;;3.57;47.70
44351;BME280;62766;62.622;17.912;2023-04-15T07:19:07;102576.02;;;3.39;47.86
44351;BME280;62766;62.622;17.912;2023-04-15T07:21:38;102579.93;;;3.49;47.83
44351;BME280;62766;62.622;17.912;2023-04-15T07:24:06;102583.88;;;3.48;47.63
44351;BME280;62766;62.622;17.912;2023-04-15T07:26:35;102587.87;;;3.53;47.55
44351;BME280;62766;62.622;17.912;2023-04-15T07:29:04;102585.46;;;3.55;47.32
44351;BME280;62766;62.622;17.912;2023-04-15T07:31:33;102587.57;;;3.66;47.39
44351;BME280;62766;62.622;17.912;2023-04-15T07:34:02;102587.22;;;3.55;47.48
44351;BME280;62766;62.622;17.912;2023-04-15T07:36:32;102590.91;;;3.74;46.97
44351;BME280;62766;62.622;17.912;2023-04-15T07:39:00;102591.71;;;3.92;47.18
44351;BME280;62766;62.622;17.912;2023-04-15T07:41:29;102592.79;;;3.99;47.05
44351;BME280;62766;62.622;17.912;2023-04-15T07:43:57;102591.32;;;4.01;46.79
44351;BME280;62766;62.622;17.912;2023-04-15T07:46:26;102587.65;;;4.09;46.59
44351;BME280;62766;62.622;17.912;2023-04-15T07:48:54;102591.33;;;4.16;46.13
44351;BME280;62766;62.622;17.912;2023-04-15T07:51:23;102585.74;;;4.16;45.40
44351;BME280;62766;62.622;17.912;2023-04-15T07:53:51;102586.65;;;4.09;45.30
44351;BME280;62766;62.622;17.912;2023-04-15T07:56:20;102589.27;;;4.00;45.40
44351;BME280;62766;62.622;17.912;2023-04-15T07:58:48;102584.43;;;4.18;45.45
44351;BME280;62766;62.622;17.912;2023-04-15T08:01:17;102583.84;;;4.26;44.99
44351;BME280;62766;62.622;17.912;2023-04-15T08:03:46;102585.05;;;4.27;44.74
44351;BME280;62766;62.622;17.912;2023-04-15T08:06:14;102590.70;;;4.03;44.15
44351;BME280;62766;62.622;17.912;2023-04-15T08:08:43;102589.97;;;3.99;44.44
44351;BME280;62766;62.622;17.912;2023-04-15T08:11:11;102587.28;;;3.94;45.27
44351;BME280;62766;62.622;17.912;2023-04-15T08:13:39;102590.80;;;3.94;45.49
44351;BME280;62766;62.622;17.912;2023-04-15T08:16:24;102595.59;;;3.95;45.47
44351;BME280;62766;62.622;17.912;2023-04-15T08:18:55;102595.35;;;4.10;45.75
44351;BME280;62766;62.622;17.912;2023-04-15T08:21:23;102593.67;;;4.11;45.39
44351;BME280;62766;62.622;17.912;2023-04-15T08:23:52;102588.46;;;4.23;44.60
44351;BME280;62766;62.622;17.912;2023-04-15T08:26:20;102589.70;;;4.29;44.66
44351;BME280;62766;62.622;17.912;2023-04-15T08:28:48;102586.48;;;4.25;44.45
44351;BME280;62766;62.622;17.912;2023-04-15T08:31:18;102586.43;;;4.40;45.25
44351;BME280;62766;62.622;17.912;2023-04-15T08:33:47;102588.98;;;4.48;44.39
44351;BME280;62766;62.622;17.912;2023-04-15T08:36:15;102589.44;;;4.39;43.87
44351;BME280;62766;62.622;17.912;2023-04-15T08:38:44;102589.69;;;4.26;44.51
44351;BME280;62766;62.622;17.912;2023-04-15T08:41:19;102592.26;;;4.51;44.57
44351;BME280;62766;62.622;17.912;2023-04-15T08:43:53;102599.67;;;4.60;44.77
44351;BME280;62766;62.622;17.912;2023-04-15T08:46:24;102599.50;;;4.73;44.89
44351;BME280;62766;62.622;17.912;2023-04-15T08:48:56;102598.09;;;4.64;44.62
44351;BME280;62766;62.622;17.912;2023-04-15T08:51:26;102604.93;;;4.69;44.75
44351;BME280;62766;62.622;17.912;2023-04-15T08:53:55;102607.90;;;4.76;44.89
44351;BME280;62766;62.622;17.912;2023-04-15T08:56:24;102601.19;;;4.67;44.74
44351;BME280;62766;62.622;17.912;2023-04-15T08:58:54;102603.63;;;4.94;44.84
44351;BME280;62766;62.622;17.912;2023-04-15T09:01:22;102604.62;;;4.98;44.59
44351;BME280;62766;62.622;17.912;2023-04-15T09:03:51;102606.57;;;4.93;44.46
44351;BME280;62766;62.622;17.912;2023-04-15T09:06:21;102600.78;;;5.12;43.68
44351;BME280;62766;62.622;17.912;2023-04-15T09:08:51;102600.74;;;5.09;43.83
44351;BME280;62766;62.622;17.912;2023-04-15T09:11:20;102601.37;;;5.19;43.29
44351;BME280;62766;62.622;17.912;2023-04-15T09:13:49;102601.47;;;5.12;43.77
44351;BME280;62766;62.622;17.912;2023-04-15T09:16:18;102605.62;;;5.17;43.28
44351;BME280;62766;62.622;17.912;2023-04-15T09:18:47;102606.55;;;5.22;43.33
44351;BME280;62766;62.622;17.912;2023-04-15T09:21:16;102605.10;;;5.33;43.10
44351;BME280;62766;62.622;17.912;2023-04-15T09:24:00;102604.75;;;5.30;42.87
44351;BME280;62766;62.622;17.912;2023-04-15T09:26:31;102609.15;;;5.40;41.91
44351;BME280;62766;62.622;17.912;2023-04-15T09:29:04;102609.46;;;5.57;42.10
44351;BME280;62766;62.622;17.912;2023-04-15T09:31:33;102612.34;;;5.62;41.47
44351;BME280;62766;62.622;17.912;2023-04-15T09:34:02;102611.21;;;5.50;41.30
44351;BME280;62766;62.622;17.912;2023-04-15T09:36:51;102611.31;;;5.70;40.45
44351;BME280;62766;62.622;17.912;2023-04-15T09:39:19;102608.18;;;5.65;40.44
44351;BME280;62766;62.622;17.912;2023-04-15T09:42:04;102604.24;;;5.78;40.41
44351;BME280;62766;62.622;17.912;2023-04-15T09:44:34;102610.63;;;5.80;38.89
44351;BME280;62766;62.622;17.912;2023-04-15T09:47:03;102610.63;;;5.79;39.19
44351;BME280;62766;62.622;17.912;2023-04-15T09:49:32;102617.83;;;5.64;39.32
44351;BME280;62766;62.622;17.912;2023-04-15T09:52:01;102618.34;;;5.80;40.15
44351;BME280;62766;62.622;17.912;2023-04-15T09:54:34;102613.76;;;5.88;40.17
44351;BME280;62766;62.622;17.912;2023-04-15T09:57:05;102612.55;;;6.07;40.59
44351;BME280;62766;62.622;17.912;2023-04-15T09:59:35;102611.10;;;6.20;40.01
44351;BME280;62766;62.622;17.912;2023-04-15T10:03:21;102613.36;;;6.03;39.53
44351;BME280;62766;62.622;17.912;2023-04-15T10:05:51;102614.41;;;6.15;39.76
44351;BME280;62766;62.622;17.912;2023-04-15T10:08:22;102614.65;;;6.44;40.00
44351;BME280;62766;62.622;17.912;2023-04-15T10:10:52;102611.61;;;6.60;39.30
44351;BME280;62766;62.622;17.912;2023-04-15T10:13:23;102609.34;;;6.80;38.69
44351;BME280;62766;62.622;17.912;2023-04-15T10:15:56;102608.68;;;6.83;38.04
44351;BME280;62766;62.622;17.912;2023-04-15T10:18:26;102609.82;;;7.00;36.87
44351;BME280;62766;62.622;17.912;2023-04-15T10:20:55;102607.18;;;7.03;37.30
44351;BME280;62766;62.622;17.912;2023-04-15T10:23:23;102611.94;;;7.16;37.89
44351;BME280;62766;62.622;17.912;2023-04-15T10:25:53;102607.42;;;7.22;37.22
44351;BME280;62766;62.622;17.912;2023-04-15T10:28:22;102605.35;;;7.22;36.06
44351;BME280;62766;62.622;17.912;2023-04-15T10:30:51;102602.29;;;7.25;35.64
44351;BME280;62766;62.622;17.912;2023-04-15T10:33:22;102600.46;;;7.36;34.97
44351;BME280;62766;62.622;17.912;2023-04-15T10:35:52;102600.55;;;7.35;35.70
44351;BME280;62766;62.622;17.912;2023-04-15T10:38:38;102598.77;;;7.49;35.39
44351;BME280;62766;62.622;17.912;2023-04-15T10:41:17;102596.54;;;7.54;35.48
44351;BME280;62766;62.622;17.912;2023-04-15T10:43:48;102593.90;;;7.61;35.18
44351;BME280;62766;62.622;17.912;2023-04-15T10:46:21;102596.67;;;7.76;34.36
44351;BME280;62766;62.622;17.912;2023-04-15T10:48:51;102595.37;;;7.59;33.70
44351;BME280;62766;62.622;17.912;2023-04-15T10:51:29;102596.71;;;7.70;34.63
44351;BME280;62766;62.622;17.912;2023-04-15T10:53:59;102598.67;;;7.76;33.98
44351;BME280;62766;62.622;17.912;2023-04-15T10:56:28;102591.95;;;7.72;34.23
44351;BME280;62766;62.622;17.912;2023-04-15T10:58:58;102591.57;;;7.74;35.31
44351;BME280;62766;62.622;17.912;2023-04-15T11:02:01;102589.46;;;7.85;34.81
44351;BME280;62766;62.622;17.912;2023-04-15T11:05:03;102585.30;;;7.98;34.11
44351;BME280;62766;62.622;17.912;2023-04-15T11:07:36;102587.93;;;8.07;33.55
44351;BME280;62766;62.622;17.912;2023-04-15T11:11:10;102589.43;;;8.32;32.94
44351;BME280;62766;62.622;17.912;2023-04-15T11:13:47;102591.33;;;8.30;32.09
44351;BME280;62766;62.622;17.912;2023-04-15T11:16:16;102596.16;;;8.31;30.58
44351;BME280;62766;62.622;17.912;2023-04-15T11:18:53;102601.03;;;8.14;30.33
44351;BME280;62766;62.622;17.912;2023-04-15T11:21:24;102596.95;;;8.12;30.16
44351;BME280;62766;62.622;17.912;2023-04-15T11:23:53;102591.67;;;8.23;29.36
44351;BME280;62766;62.622;17.912;2023-04-15T11:26:25;102590.12;;;8.10;30.12
44351;BME280;62766;62.622;17.912;2023-04-15T11:28:53;102589.11;;;8.14;30.38
44351;BME280;62766;62.622;17.912;2023-04-15T11:31:21;102590.33;;;8.18;30.19
44351;BME280;62766;62.622;17.912;2023-04-15T11:33:53;102592.53;;;8.32;29.21
44351;BME280;62766;62.622;17.912;2023-04-15T11:36:24;102593.48;;;8.45;29.95
44351;BME280;62766;62.622;17.912;2023-04-15T11:38:52;102594.73;;;8.31;28.72
44351;BME280;62766;62.622;17.912;2023-04-15T11:41:21;102594.40;;;8.21;29.04
44351;BME280;62766;62.622;17.912;2023-04-15T11:43:49;102597.30;;;8.18;29.63
44351;BME280;62766;62.622;17.912;2023-04-15T11:46:19;102594.08;;;8.31;29.01
44351;BME280;62766;62.622;17.912;2023-04-15T11:48:47;102593.53;;;8.51;29.42
44351;BME280;62766;62.622;17.912;2023-04-15T11:51:16;102590.90;;;8.42;28.69
44351;BME280;62766;62.622;17.912;2023-04-15T11:53:45;102591.27;;;8.22;28.69
44351;BME280;62766;62.622;17.912;2023-04-15T11:56:18;102588.50;;;8.22;29.05
44351;BME280;62766;62.622;17.912;2023-04-15T11:58:46;102591.63;;;8.27;29.48
44351;BME280;62766;62.622;17.912;2023-04-15T12:01:15;102592.17;;;8.15;28.44
44351;BME280;62766;62.622;17.912;2023-04-15T12:03:44;102591.01;;;8.15;27.81
44351;BME280;62766;62.622;17.912;2023-04-15T12:06:15;102590.19;;;8.08;27.40
44351;BME280;62766;62.622;17.912;2023-04-15T12:09:07;102591.00;;;7.86;27.87
44351;BME280;62766;62.622;17.912;2023-04-15T12:11:42;102588.00;;;8.01;28.24
44351;BME280;62766;62.622;17.912;2023-04-15T12:14:18;102587.72;;;8.14;28.03
44351;BME280;62766;62.622;17.912;2023-04-15T12:16:48;102587.17;;;8.06;28.22
44351;BME280;62766;62.622;17.912;2023-04-15T12:19:21;102588.54;;;8.26;28.78
44351;BME280;62766;62.622;17.912;2023-04-15T12:21:52;102585.60;;;8.30;27.77
44351;BME280;62766;62.622;17.912;2023-04-15T12:24:21;102588.57;;;8.13;27.18
44351;BME280;62766;62.622;17.912;2023-04-15T12:26:51;102589.39;;;8.03;26.16
44351;BME280;62766;62.622;17.912;2023-04-15T12:29:24;102594.02;;;7.97;26.24
44351;BME280;62766;62.622;17.912;2023-04-15T12:31:54;102592.47;;;7.77;25.85
44351;BME280;62766;62.622;17.912;2023-04-15T12:34:26;102587.14;;;7.52;26.06
44351;BME280;62766;62.622;17.912;2023-04-15T12:36:56;102588.96;;;7.75;26.51
44351;BME280;62766;62.622;17.912;2023-04-15T12:39:26;102591.24;;;7.76;27.25
44351;BME280;62766;62.622;17.912;2023-04-15T12:41:55;102589.18;;;7.97;26.54
44351;BME280;62766;62.622;17.912;2023-04-15T12:44:24;102585.43;;;7.89;26.50
44351;BME280;62766;62.622;17.912;2023-04-15T12:46:52;102582.32;;;7.88;26.77
44351;BME280;62766;62.622;17.912;2023-04-15T12:49:21;102579.33;;;8.02;26.52
44351;BME280;62766;62.622;17.912;2023-04-15T12:51:52;102578.23;;;7.91;25.97
44351;BME280;62766;62.622;17.912;2023-04-15T12:54:21;102581.79;;;8.05;26.71
44351;BME280;62766;62.622;17.912;2023-04-15T12:56:50;102582.09;;;8.13;26.28
44351;BME280;62766;62.622;17.912;2023-04-15T12:59:20;102580.12;;;7.89;26.48
44351;BME280;62766;62.622;17.912;2023-04-15T13:01:50;102581.83;;;7.84;26.51
44351;BME280;62766;62.622;17.912;2023-04-15T13:04:20;102580.62;;;7.97;26.03
44351;BME280;62766;62.622;17.912;2023-04-15T13:06:48;102579.50;;;7.85;26.45
44351;BME280;62766;62.622;17.912;2023-04-15T13:09:16;102577.71;;;7.80;25.84